Time;durP1;ratioP1;P1;durP2;ratioP2;P2;SDS_P1;SDS_P2;PMS_P1;PMS_P2;Temp;Humidity;BMP_temperature;BMP_pressure;BME280_temperature;BME280_humidity;BME280_pressure;Samples;Min_cycle;Max_cycle;Signal;HPM_P1;HPM_P2
2021/03/26 00:00:34;;;;;;;178.82;102.78;;;3.90;97.30;;;;;;4966019;28;20034;-71
2021/03/26 00:03:01;;;;;;;199.32;111.18;;;3.90;97.00;;;;;;4961189;28;20031;-69
2021/03/26 00:05:27;;;;;;;225.98;125.65;;;3.90;96.90;;;;;;4958560;28;20035;-70
2021/03/26 00:07:53;;;;;;;205.52;114.90;;;3.80;97.20;;;;;;4959614;28;20030;-73
2021/03/26 00:10:20;;;;;;;209.05;116.75;;;3.90;97.20;;;;;;4960355;28;20024;-76
2021/03/26 00:12:46;;;;;;;185.70;112.07;;;3.80;97.50;;;;;;4958834;29;20024;-77
2021/03/26 00:15:12;;;;;;;187.15;111.65;;;3.70;97.30;;;;;;4958252;28;20179;-71
2021/03/26 00:17:47;;;;;;;195.85;113.63;;;3.70;97.30;;;;;;4957958;28;20030;-76
2021/03/26 00:20:14;;;;;;;201.65;117.15;;;3.60;97.60;;;;;;4958343;28;20106;-76
2021/03/26 00:22:39;;;;;;;206.43;120.13;;;3.70;97.60;;;;;;4958684;28;20023;-69
2021/03/26 00:25:07;;;;;;;189.25;112.00;;;3.70;98.20;;;;;;4958470;28;20027;-68
2021/03/26 00:27:33;;;;;;;191.43;113.18;;;3.70;98.30;;;;;;4957864;28;20055;-70
2021/03/26 00:29:59;;;;;;;190.20;107.55;;;3.80;98.50;;;;;;4958228;28;20019;-75
2021/03/26 00:32:25;;;;;;;176.48;103.97;;;3.70;98.50;;;;;;4959517;28;20030;-73
2021/03/26 00:34:53;;;;;;;167.95;98.32;;;3.70;98.60;;;;;;4958695;28;20031;-75
2021/03/26 00:37:19;;;;;;;162.25;95.75;;;3.70;98.80;;;;;;4977865;28;20431;-71
2021/03/26 00:39:45;;;;;;;146.02;88.97;;;3.70;98.80;;;;;;4978104;28;20019;-76
2021/03/26 00:42:11;;;;;;;143.85;87.57;;;3.60;98.90;;;;;;4978689;28;20023;-70
2021/03/26 00:44:37;;;;;;;155.75;87.28;;;3.50;99.60;;;;;;4978099;28;20477;-75
2021/03/26 00:47:03;;;;;;;153.10;84.53;;;3.60;99.10;;;;;;4978119;28;20041;-76
2021/03/26 00:49:29;;;;;;;170.68;97.57;;;3.50;99.30;;;;;;4977826;28;20027;-75
2021/03/26 00:51:58;;;;;;;158.32;88.57;;;3.60;99.50;;;;;;4977230;28;20007;-75
2021/03/26 00:54:26;;;;;;;126.50;72.63;;;3.60;99.40;;;;;;4979278;28;20105;-70
2021/03/26 00:56:52;;;;;;;132.40;75.40;;;3.60;99.30;;;;;;4978810;28;20036;-69
2021/03/26 00:59:18;;;;;;;110.80;67.30;;;3.50;99.10;;;;;;4978158;28;20086;-73
2021/03/26 01:01:44;;;;;;;205.15;115.40;;;3.50;99.20;;;;;;4978123;28;20543;-72
2021/03/26 01:04:10;;;;;;;184.68;96.13;;;3.50;99.20;;;;;;4977929;28;20030;-69
2021/03/26 01:06:36;;;;;;;118.35;69.10;;;3.60;99.10;;;;;;4978187;28;20038;-73
2021/03/26 01:09:04;;;;;;;101.30;58.25;;;3.50;99.30;;;;;;4978840;28;20027;-74
2021/03/26 01:11:33;;;;;;;102.05;61.60;;;3.60;99.10;;;;;;4978772;28;20023;-71
2021/03/26 01:14:00;;;;;;;137.35;82.82;;;3.60;99.00;;;;;;4977826;28;20105;-71
2021/03/26 01:16:27;;;;;;;100.97;59.53;;;3.60;98.80;;;;;;4977586;28;20027;-71
2021/03/26 01:18:53;;;;;;;122.43;72.97;;;3.60;98.70;;;;;;4977258;28;20107;-72
2021/03/26 01:21:32;;;;;;;96.75;59.28;;;3.60;98.80;;;;;;4980882;28;20090;-75
2021/03/26 01:23:58;;;;;;;90.38;52.92;;;3.60;98.70;;;;;;4981862;28;20023;-70
2021/03/26 01:26:25;;;;;;;86.38;51.85;;;3.50;98.60;;;;;;4979965;28;20382;-69
2021/03/26 01:28:52;;;;;;;98.00;55.42;;;3.60;98.20;;;;;;4983209;28;20524;-76
2021/03/26 01:31:18;;;;;;;90.97;55.63;;;3.50;98.20;;;;;;4980796;28;20034;-76
2021/03/26 01:33:45;;;;;;;94.30;56.63;;;3.50;98.70;;;;;;4983285;28;20034;-73
2021/03/26 01:36:12;;;;;;;97.25;58.88;;;3.50;98.10;;;;;;4981953;28;20381;-70
2021/03/26 01:38:39;;;;;;;136.10;80.50;;;3.50;98.60;;;;;;4979630;28;20025;-70
2021/03/26 01:41:13;;;;;;;119.88;73.03;;;3.50;98.70;;;;;;4981629;28;20477;-71
2021/03/26 01:43:40;;;;;;;137.32;82.18;;;3.50;98.80;;;;;;4982084;28;20023;-68
2021/03/26 01:46:09;;;;;;;125.13;73.75;;;3.50;99.00;;;;;;4981964;28;20035;-69
2021/03/26 01:48:43;;;;;;;95.13;56.05;;;3.50;98.80;;;;;;4980631;28;20026;-73
2021/03/26 01:51:15;;;;;;;87.45;52.85;;;3.50;98.70;;;;;;4981254;28;20031;-72
2021/03/26 01:53:41;;;;;;;103.22;60.97;;;3.50;98.70;;;;;;4979051;28;20034;-71
2021/03/26 01:56:08;;;;;;;80.28;47.58;;;3.40;98.90;;;;;;4980464;28;20051;-69
2021/03/26 01:58:36;;;;;;;78.97;49.00;;;3.30;98.70;;;;;;4980793;28;20015;-74
2021/03/26 02:01:24;;;;;;;83.78;48.63;;;3.30;99.00;;;;;;4979581;28;20033;-72
2021/03/26 02:03:53;;;;;;;87.65;50.17;;;3.30;98.90;;;;;;4982185;28;20019;-69
2021/03/26 02:06:21;;;;;;;92.15;54.10;;;3.20;98.80;;;;;;4980709;28;20027;-72
2021/03/26 02:08:47;;;;;;;286.35;118.80;;;3.00;99.00;;;;;;4981401;28;20023;-70
2021/03/26 02:11:34;;;;;;;172.80;87.32;;;2.90;99.30;;;;;;4980841;28;20073;-72
2021/03/26 02:14:04;;;;;;;141.13;77.57;;;2.90;99.70;;;;;;4978407;28;20022;-70
2021/03/26 02:16:30;;;;;;;131.10;72.55;;;2.90;99.60;;;;;;4980126;28;20029;-74
2021/03/26 02:18:56;;;;;;;128.18;69.55;;;3.00;99.50;;;;;;4981136;28;20028;-70
2021/03/26 02:21:28;;;;;;;117.85;64.80;;;3.00;99.30;;;;;;4978539;28;20388;-72
2021/03/26 02:23:56;;;;;;;124.28;66.53;;;3.00;99.20;;;;;;4980625;28;20430;-73
2021/03/26 02:26:26;;;;;;;160.20;84.60;;;2.90;99.40;;;;;;4980069;28;20057;-70
2021/03/26 02:28:53;;;;;;;180.82;95.50;;;2.90;99.30;;;;;;4980071;28;20033;-72
2021/03/26 02:31:18;;;;;;;164.63;86.97;;;2.90;99.20;;;;;;4980556;28;20043;-73
2021/03/26 02:33:45;;;;;;;154.57;82.57;;;2.90;99.40;;;;;;4980424;28;20034;-73
2021/03/26 02:36:16;;;;;;;146.57;78.82;;;3.00;99.10;;;;;;4981155;28;20029;-75
2021/03/26 02:38:58;;;;;;;147.85;83.93;;;3.00;99.50;;;;;;4979685;28;20042;-70
2021/03/26 02:41:31;;;;;;;152.82;87.10;;;2.90;99.50;;;;;;4979544;28;20026;-71
2021/03/26 02:44:26;;;;;;;155.90;85.30;;;2.90;99.50;;;;;;4980365;28;20034;-74
2021/03/26 02:47:37;;;;;;;142.65;78.30;;;2.90;99.20;;;;;;4980017;28;20293;-68
2021/03/26 02:50:34;;;;;;;137.82;77.88;;;2.90;99.30;;;;;;4900437;29;20103;-69
2021/03/26 02:53:08;;;;;;;142.27;77.55;;;2.90;99.00;;;;;;4880089;29;20044;-75
2021/03/26 02:55:51;;;;;;;135.30;74.32;;;2.90;99.10;;;;;;4891777;29;20080;-69
2021/03/26 02:58:28;;;;;;;132.13;71.53;;;2.80;99.20;;;;;;4883496;29;20033;-68
2021/03/26 03:01:03;;;;;;;120.85;70.88;;;2.80;99.20;;;;;;4900381;29;20040;-68
2021/03/26 03:03:31;;;;;;;125.28;70.00;;;2.70;99.20;;;;;;4901005;29;20039;-68
2021/03/26 03:06:21;;;;;;;109.88;62.88;;;2.40;99.30;;;;;;4885722;29;20480;-69
2021/03/26 03:08:49;;;;;;;100.50;60.55;;;2.40;99.50;;;;;;4902702;29;20088;-76
2021/03/26 03:11:35;;;;;;;105.82;57.08;;;2.30;99.90;;;;;;4901148;29;20029;-75
2021/03/26 03:14:15;;;;;;;105.90;61.65;;;2.30;99.90;;;;;;4901171;29;20352;-71
2021/03/26 03:16:49;;;;;;;117.85;66.60;;;2.30;99.90;;;;;;4900845;29;20028;-71
2021/03/26 03:19:38;;;;;;;113.28;62.65;;;2.10;99.90;;;;;;4900955;29;20036;-73
2021/03/26 03:22:22;;;;;;;116.65;65.20;;;2.20;99.90;;;;;;4900980;29;20090;-70
2021/03/26 03:24:48;;;;;;;114.15;66.20;;;2.20;99.90;;;;;;4966002;28;20107;-76
2021/03/26 03:27:32;;;;;;;115.28;66.30;;;2.10;99.90;;;;;;4977591;28;20046;-72
2021/03/26 03:30:10;;;;;;;118.28;63.55;;;2.20;99.90;;;;;;4979488;28;20049;-74
2021/03/26 03:32:55;;;;;;;106.90;59.92;;;2.10;99.90;;;;;;4978149;28;20031;-76
2021/03/26 03:35:42;;;;;;;108.70;61.63;;;2.20;99.90;;;;;;4978728;28;20354;-75
2021/03/26 03:38:30;;;;;;;112.38;63.50;;;2.30;99.90;;;;;;4979649;28;20054;-74
2021/03/26 03:41:04;;;;;;;105.47;58.90;;;2.30;99.80;;;;;;4978660;28;20026;-74
2021/03/26 03:43:59;;;;;;;87.88;52.05;;;2.20;99.90;;;;;;4979155;28;20023;-68
2021/03/26 03:46:31;;;;;;;99.28;57.75;;;2.40;99.90;;;;;;4978026;28;20444;-70
2021/03/26 03:49:18;;;;;;;89.90;52.83;;;2.30;99.50;;;;;;4979023;28;20015;-69
2021/03/26 03:52:03;;;;;;;96.85;55.85;;;2.30;99.60;;;;;;4979275;28;20029;-71
2021/03/26 03:54:54;;;;;;;94.50;52.08;;;2.30;99.70;;;;;;4976696;28;20033;-75
2021/03/26 03:57:27;;;;;;;89.88;51.28;;;2.30;99.80;;;;;;4976944;28;20086;-68
2021/03/26 04:00:20;;;;;;;87.95;48.97;;;2.40;99.90;;;;;;4977134;28;20433;-70
2021/03/26 04:03:36;;;;;;;82.82;49.28;;;2.40;99.70;;;;;;4978287;28;20018;-76
2021/03/26 04:06:11;;;;;;;84.78;48.20;;;2.40;99.70;;;;;;4882778;29;20075;-75
2021/03/26 04:08:44;;;;;;;84.25;48.13;;;2.40;99.70;;;;;;4899947;29;20097;-68
2021/03/26 04:11:25;;;;;;;80.80;46.58;;;2.40;99.40;;;;;;4900790;29;20033;-70
2021/03/26 04:13:59;;;;;;;88.78;51.38;;;2.40;99.50;;;;;;4898560;29;20048;-69
2021/03/26 04:16:27;;;;;;;83.25;48.92;;;2.30;99.20;;;;;;4899600;29;20104;-74
2021/03/26 04:19:05;;;;;;;89.32;50.22;;;2.30;99.60;;;;;;4900242;29;20033;-72
2021/03/26 04:21:36;;;;;;;93.85;51.70;;;2.30;99.40;;;;;;4899257;29;20200;-72
2021/03/26 04:24:07;;;;;;;86.60;50.33;;;2.20;99.40;;;;;;4883806;29;20028;-74
2021/03/26 04:26:42;;;;;;;82.88;49.17;;;2.20;99.60;;;;;;4898742;29;20059;-70
2021/03/26 04:29:42;;;;;;;92.78;52.83;;;2.20;99.70;;;;;;4901540;29;20028;-74
2021/03/26 04:32:11;;;;;;;96.95;54.70;;;2.20;99.50;;;;;;4899459;29;20036;-75
2021/03/26 04:34:39;;;;;;;98.60;56.22;;;2.20;99.80;;;;;;4899468;29;20049;-70
2021/03/26 04:37:11;;;;;;;92.60;54.50;;;2.20;99.80;;;;;;4900510;29;20028;-72
2021/03/26 04:39:47;;;;;;;98.72;58.13;;;2.20;99.90;;;;;;4927101;28;20397;-74
2021/03/26 04:42:26;;;;;;;111.30;65.22;;;2.20;99.70;;;;;;4978428;28;20409;-76
2021/03/26 04:45:20;;;;;;;128.75;74.97;;;2.20;99.90;;;;;;4978090;28;20045;-70
2021/03/26 04:48:15;;;;;;;111.93;64.93;;;2.10;99.90;;;;;;4942622;28;20086;-72
2021/03/26 04:50:45;;;;;;;97.85;57.92;;;2.10;99.90;;;;;;4978665;28;20011;-71
2021/03/26 04:53:17;;;;;;;102.78;59.50;;;2.10;99.90;;;;;;4977125;28;20034;-73
2021/03/26 04:55:51;;;;;;;109.50;61.05;;;2.10;99.90;;;;;;4964745;28;20015;-72
2021/03/26 04:58:27;;;;;;;173.88;86.93;;;2.10;99.90;;;;;;4964663;28;20433;-76
2021/03/26 05:01:27;;;;;;;192.98;94.50;;;2.10;99.90;;;;;;4964283;28;20031;-74
2021/03/26 05:04:06;;;;;;;152.25;84.63;;;2.10;99.80;;;;;;4905072;29;20039;-72
2021/03/26 05:06:45;;;;;;;148.25;83.18;;;1.70;99.90;;;;;;4904481;29;20609;-70
2021/03/26 05:09:16;;;;;;;183.48;108.35;;;1.80;99.90;;;;;;4904663;29;20031;-71
2021/03/26 05:11:45;;;;;;;151.55;91.35;;;1.80;99.90;;;;;;4904475;29;20115;-71
2021/03/26 05:14:25;;;;;;;166.48;99.63;;;1.80;99.90;;;;;;4905064;29;20052;-76
2021/03/26 05:16:56;;;;;;;158.57;94.82;;;1.70;99.90;;;;;;4906454;29;20076;-72
2021/03/26 05:19:52;;;;;;;161.60;93.15;;;1.90;99.90;;;;;;4905288;29;20045;-72
2021/03/26 05:22:24;;;;;;;151.88;91.88;;;1.90;99.90;;;;;;4907644;29;20029;-72
2021/03/26 05:25:03;;;;;;;147.55;89.22;;;2.10;99.90;;;;;;4890772;29;20052;-77
2021/03/26 05:27:29;;;;;;;146.80;84.60;;;2.20;99.90;;;;;;4904688;29;20151;-70
2021/03/26 05:29:56;;;;;;;123.85;73.55;;;2.20;99.90;;;;;;4905474;29;20451;-72
2021/03/26 05:32:43;;;;;;;116.18;68.07;;;2.30;99.90;;;;;;4904142;29;20069;-76
2021/03/26 05:35:18;;;;;;;113.63;69.60;;;2.30;99.90;;;;;;4905835;29;20029;-76
2021/03/26 05:37:53;;;;;;;122.50;71.97;;;2.40;99.90;;;;;;4906059;29;20044;-73
2021/03/26 05:40:41;;;;;;;133.10;73.38;;;2.50;99.90;;;;;;4957123;29;20503;-76
2021/03/26 05:43:14;;;;;;;113.35;67.57;;;2.60;99.90;;;;;;4962822;28;20039;-74
2021/03/26 05:46:08;;;;;;;97.10;60.63;;;2.70;99.90;;;;;;4970042;28;20085;-75
2021/03/26 05:48:39;;;;;;;102.00;59.60;;;2.70;99.90;;;;;;4943642;28;20097;-71
2021/03/26 05:51:46;;;;;;;129.27;79.72;;;2.80;99.90;;;;;;4983967;28;20428;-71
2021/03/26 05:54:21;;;;;;;115.65;70.95;;;3.00;99.90;;;;;;4982799;28;20023;-76
2021/03/26 05:56:58;;;;;;;;;;;3.20;99.90;;;;;;4983953;28;20042;-69
2021/03/26 06:00:00;;;;;;;79.55;49.10;;;3.30;99.90;;;;;;4983438;28;19906;-71
2021/03/26 06:02:38;;;;;;;314.08;142.05;;;3.50;99.90;;;;;;4983494;28;20030;-70
2021/03/26 06:05:10;;;;;;;90.25;50.47;;;3.60;99.90;;;;;;4983835;28;20030;-75
2021/03/26 06:08:18;;;;;;;86.05;49.40;;;3.70;99.90;;;;;;4980351;28;20030;-70
2021/03/26 06:10:47;;;;;;;69.18;42.22;;;3.90;99.90;;;;;;4967069;28;20397;-73
2021/03/26 06:13:50;;;;;;;60.47;39.42;;;3.90;99.90;;;;;;4979033;28;20023;-71
2021/03/26 06:16:39;;;;;;;64.47;38.95;;;3.90;99.90;;;;;;4978466;28;20027;-78
2021/03/26 06:19:51;;;;;;;67.28;39.95;;;4.00;99.70;;;;;;4978297;28;20065;-70
2021/03/26 06:22:33;;;;;;;70.90;43.55;;;4.20;99.60;;;;;;4980659;28;20030;-75
2021/03/26 06:25:08;;;;;;;73.40;44.78;;;4.20;99.90;;;;;;4979513;28;20015;-69
2021/03/26 06:27:39;;;;;;;;;;;4.30;99.90;;;;;;4978316;28;20047;-71
2021/03/26 06:30:24;;;;;;;109.95;69.72;;;4.40;99.90;;;;;;4978581;28;19909;-69
2021/03/26 06:33:18;;;;;;;93.60;59.15;;;4.40;99.90;;;;;;4967317;28;20027;-71
2021/03/26 06:36:02;;;;;;;69.32;46.42;;;4.50;99.90;;;;;;4964004;28;20016;-72
2021/03/26 06:39:09;;;;;;;71.70;44.13;;;4.70;99.90;;;;;;4961534;29;20373;-70
2021/03/26 06:41:49;;;;;;;69.43;43.20;;;4.80;99.30;;;;;;4961777;29;20049;-76
2021/03/26 06:44:53;;;;;;;57.13;36.10;;;4.80;99.00;;;;;;4959275;28;20069;-73
2021/03/26 06:47:37;;;;;;;55.03;35.70;;;4.80;99.20;;;;;;4959357;29;20098;-70
2021/03/26 06:50:15;;;;;;;54.58;34.80;;;4.90;99.20;;;;;;4958248;28;20033;-71
2021/03/26 06:53:04;;;;;;;52.47;34.42;;;5.10;99.10;;;;;;4960647;28;20019;-74
2021/03/26 06:55:58;;;;;;;53.63;31.55;;;5.30;98.80;;;;;;4960311;28;20081;-75
2021/03/26 06:58:58;;;;;;;52.00;33.60;;;5.40;98.40;;;;;;4960410;28;20039;-73
2021/03/26 07:01:58;;;;;;;72.57;41.00;;;5.70;98.50;;;;;;4959336;28;20106;-71
2021/03/26 07:04:49;;;;;;;76.53;43.75;;;5.80;97.70;;;;;;4956356;28;20019;-75
2021/03/26 07:07:49;;;;;;;61.60;38.08;;;5.90;97.20;;;;;;4959581;28;20093;-69
2021/03/26 07:10:36;;;;;;;62.13;38.85;;;6.00;97.50;;;;;;4956864;29;20059;-69
2021/03/26 07:13:31;;;;;;;56.13;35.78;;;6.30;98.10;;;;;;4960771;28;20359;-73
2021/03/26 07:16:19;;;;;;;63.90;38.67;;;6.50;96.30;;;;;;4959441;28;20051;-76
2021/03/26 07:19:14;;;;;;;80.20;39.67;;;6.60;96.00;;;;;;4960325;28;20031;-77
2021/03/26 07:22:25;;;;;;;73.00;40.55;;;6.80;95.40;;;;;;4961064;28;20478;-75
2021/03/26 07:25:51;;;;;;;108.50;60.88;;;6.90;94.90;;;;;;4958424;28;20032;-74
2021/03/26 07:28:56;;;;;;;85.97;49.28;;;7.10;95.40;;;;;;4906365;29;20418;-70
2021/03/26 17:03:42;;;;;;;80.25;40.80;;;13.40;58.60;;;;;;5131931;27;20462;-68
2021/03/26 17:06:31;;;;;;;86.88;42.63;;;13.50;64.90;;;;;;5131272;28;20030;-70
2021/03/26 17:09:36;;;;;;;76.03;43.15;;;13.40;66.90;;;;;;5131546;28;20023;-69
2021/03/26 17:12:39;;;;;;;93.88;53.20;;;13.30;69.50;;;;;;5103436;28;20043;-69
2021/03/26 17:15:31;;;;;;;98.07;52.08;;;13.10;68.00;;;;;;5131743;28;20019;-69
2021/03/26 17:18:00;;;;;;;92.03;49.45;;;13.00;67.90;;;;;;5110202;28;20059;-67
2021/03/26 17:20:45;;;;;;;125.85;69.72;;;13.00;72.90;;;;;;5114975;28;20450;-72
2021/03/26 17:23:29;;;;;;;;;;;12.90;68.70;;;;;;5137181;28;20026;-75
2021/03/26 17:26:07;;;;;;;136.43;75.35;;;12.80;68.00;;;;;;5136490;28;19888;-68
2021/03/26 17:28:41;;;;;;;155.90;84.72;;;12.70;73.40;;;;;;5133774;28;20409;-70
2021/03/26 17:31:31;;;;;;;149.70;83.22;;;12.60;72.70;;;;;;5134464;28;20059;-78
2021/03/26 17:33:58;;;;;;;164.73;83.32;;;12.50;75.20;;;;;;5133750;28;20102;-75
2021/03/26 17:36:42;;;;;;;143.27;82.00;;;12.50;74.70;;;;;;5134101;28;20027;-68
2021/03/26 17:39:28;;;;;;;102.47;61.85;;;12.40;73.60;;;;;;5135094;28;20575;-69
2021/03/26 17:42:12;;;;;;;178.25;94.88;;;12.30;66.10;;;;;;5135513;28;20032;-75
2021/03/26 17:44:53;;;;;;;140.02;80.50;;;12.30;70.20;;;;;;5117279;28;20034;-70
2021/03/26 17:47:30;;;;;;;241.48;138.65;;;12.20;73.40;;;;;;5134265;28;20123;-68
2021/03/26 17:50:17;;;;;;;242.30;144.07;;;12.20;71.30;;;;;;5117155;28;20035;-74
2021/03/26 17:53:15;;;;;;;320.95;182.27;;;12.30;68.20;;;;;;5118154;28;20024;-78
2021/03/26 17:56:18;;;;;;;332.52;189.73;;;12.30;68.10;;;;;;5114270;28;20019;-70
2021/03/26 17:59:23;;;;;;;352.80;246.68;;;12.30;64.60;;;;;;5134279;28;20019;-78
2021/03/26 18:02:09;;;;;;;179.45;122.40;;;12.20;61.50;;;;;;5133976;28;20043;-73
2021/03/26 18:04:52;;;;;;;143.18;101.10;;;12.20;61.60;;;;;;5120432;28;20020;-75
2021/03/26 18:07:36;;;;;;;199.63;139.93;;;12.10;63.60;;;;;;5120404;28;20019;-71
2021/03/26 18:10:11;;;;;;;139.30;99.13;;;12.10;65.00;;;;;;5120357;28;20030;-71
2021/03/26 18:12:57;;;;;;;201.65;143.63;;;12.00;62.40;;;;;;5119354;28;20035;-77
2021/03/26 18:15:30;;;;;;;100.10;59.33;;;12.00;62.10;;;;;;5119904;28;20037;-76
2021/03/26 18:18:09;;;;;;;142.70;90.90;;;12.00;60.80;;;;;;5120083;28;20031;-71
2021/03/26 18:20:56;;;;;;;91.65;57.00;;;11.90;61.10;;;;;;5119558;28;20024;-71
2021/03/26 18:23:39;;;;;;;91.15;56.55;;;12.00;60.60;;;;;;5120165;28;20059;-78
2021/03/26 18:26:08;;;;;;;95.00;58.40;;;11.90;61.10;;;;;;5120475;28;20012;-75
2021/03/26 18:29:11;;;;;;;102.80;62.30;;;11.80;61.50;;;;;;5101722;28;20023;-76
2021/03/26 18:32:10;;;;;;;97.85;59.80;;;11.80;61.90;;;;;;5101490;28;20020;-75
2021/03/26 18:35:08;;;;;;;101.47;61.88;;;11.80;61.70;;;;;;5121587;28;20023;-75
2021/03/26 18:38:10;;;;;;;93.70;56.58;;;11.70;61.50;;;;;;5119692;28;20028;-77
2021/03/26 18:40:39;;;;;;;86.25;52.45;;;11.60;60.50;;;;;;5119927;28;20023;-77
2021/03/26 18:43:44;;;;;;;93.78;55.42;;;11.60;61.00;;;;;;5120058;28;20022;-75
2021/03/26 18:46:37;;;;;;;87.60;52.35;;;11.60;60.60;;;;;;5014884;28;20093;-71
2021/03/26 18:49:40;;;;;;;76.10;44.50;;;11.50;62.60;;;;;;5017243;28;20056;-73
2021/03/26 18:52:37;;;;;;;70.55;40.88;;;11.50;61.50;;;;;;5019751;28;20126;-79
2021/03/26 18:55:03;;;;;;;64.85;40.72;;;11.50;61.70;;;;;;4999895;28;20033;-72
2021/03/26 18:57:51;;;;;;;58.63;39.50;;;11.40;61.20;;;;;;5018133;28;20093;-73
2021/03/26 19:00:54;;;;;;;94.07;56.67;;;11.40;62.60;;;;;;4983419;28;20044;-70
2021/03/26 19:03:47;;;;;;;91.60;53.67;;;11.40;61.70;;;;;;4999851;28;20397;-74
2021/03/26 19:06:21;;;;;;;80.55;46.50;;;11.30;62.20;;;;;;5017575;28;20022;-71
2021/03/26 19:09:19;;;;;;;76.38;46.72;;;11.20;62.30;;;;;;5019231;28;20030;-72
2021/03/26 19:12:04;;;;;;;93.05;55.65;;;11.20;62.90;;;;;;5013836;28;20034;-71
2021/03/26 19:14:38;;;;;;;;;;;11.10;63.40;;;;;;5010639;28;20033;-73
2021/03/26 19:17:33;;;;;;;79.57;50.30;;;11.00;63.20;;;;;;5051422;28;19911;-71
2021/03/26 19:20:18;;;;;;;77.05;47.13;;;10.90;63.30;;;;;;5113895;28;20477;-71
2021/03/26 19:22:48;;;;;;;;;;;10.90;63.60;;;;;;5114417;28;20050;-71
2021/03/26 19:25:32;;;;;;;76.18;47.53;;;10.80;64.90;;;;;;5114822;28;19911;-70
2021/03/26 19:28:22;;;;;;;82.97;49.60;;;10.80;65.10;;;;;;5113519;28;20023;-71
2021/03/26 19:30:51;;;;;;;95.45;58.05;;;10.80;65.30;;;;;;5083201;28;20118;-76
2021/03/26 19:33:42;;;;;;;98.65;59.80;;;10.80;65.10;;;;;;5101672;28;20048;-75
2021/03/26 19:36:16;;;;;;;102.65;62.35;;;10.80;65.30;;;;;;5101478;28;20020;-70
2021/03/26 19:39:02;;;;;;;103.45;61.70;;;10.70;65.30;;;;;;5101922;28;20024;-80
2021/03/26 19:41:37;;;;;;;105.60;64.45;;;10.70;65.70;;;;;;5098503;28;20028;-73
2021/03/26 19:44:19;;;;;;;96.82;58.63;;;10.70;65.30;;;;;;5100134;28;20076;-75
2021/03/26 19:47:19;;;;;;;90.43;56.78;;;10.70;65.80;;;;;;5100053;28;20081;-72
2021/03/26 19:50:27;;;;;;;92.05;58.05;;;10.70;65.80;;;;;;5067106;28;20036;-76
2021/03/26 19:52:55;;;;;;;81.63;52.85;;;10.60;66.30;;;;;;5101382;28;20028;-70
2021/03/26 19:55:31;;;;;;;90.88;55.22;;;10.50;67.10;;;;;;5096241;28;20028;-70
2021/03/26 19:58:12;;;;;;;80.20;52.47;;;10.50;67.40;;;;;;5115599;28;20047;-70
2021/03/26 20:00:44;;;;;;;89.50;62.63;;;10.40;67.70;;;;;;5117362;28;20558;-70
2021/03/26 20:03:24;;;;;;;71.40;48.33;;;10.40;68.20;;;;;;5113768;28;20092;-70
2021/03/26 20:06:12;;;;;;;74.75;47.17;;;10.40;68.00;;;;;;5113021;28;20027;-70
2021/03/26 20:08:50;;;;;;;82.03;49.50;;;10.40;68.20;;;;;;5114902;28;20023;-70
2021/03/26 20:11:31;;;;;;;91.72;57.15;;;10.30;68.80;;;;;;5114304;28;20377;-70
2021/03/26 20:14:25;;;;;;;87.32;56.78;;;10.40;68.90;;;;;;5114402;28;20103;-71
2021/03/26 20:16:57;;;;;;;89.13;52.83;;;10.30;69.10;;;;;;5113638;28;20027;-71
2021/03/26 20:19:37;;;;;;;92.95;57.17;;;10.30;69.10;;;;;;5098593;28;20169;-70
2021/03/26 20:22:26;;;;;;;98.28;62.70;;;10.30;69.20;;;;;;5100469;28;20499;-76
2021/03/26 20:25:32;;;;;;;98.60;70.90;;;10.20;68.70;;;;;;5116459;28;20047;-70
2021/03/26 20:28:12;;;;;;;85.35;58.22;;;10.20;69.40;;;;;;5015347;28;20077;-74
2021/03/26 20:30:59;;;;;;;79.55;49.70;;;10.20;69.80;;;;;;5016575;28;20041;-70
2021/03/26 20:33:54;;;;;;;77.45;51.72;;;10.20;68.80;;;;;;5000302;28;20028;-73
2021/03/26 20:36:33;;;;;;;73.00;46.53;;;10.10;69.10;;;;;;5017194;28;20076;-73
2021/03/26 20:39:16;;;;;;;76.35;48.28;;;10.10;69.10;;;;;;5012310;28;20042;-68
2021/03/26 20:41:54;;;;;;;83.32;52.08;;;10.00;70.50;;;;;;5028666;28;20026;-67
2021/03/26 20:44:32;;;;;;;90.70;55.92;;;10.00;70.70;;;;;;5013780;28;20513;-76
2021/03/26 20:47:23;;;;;;;88.75;56.67;;;10.00;71.10;;;;;;4995948;28;20120;-69
2021/03/26 20:50:22;;;;;;;88.32;55.38;;;10.00;71.10;;;;;;5013273;28;20101;-68
2021/03/26 20:53:19;;;;;;;96.20;57.15;;;9.90;70.90;;;;;;5010755;28;20403;-69
2021/03/26 20:55:59;;;;;;;90.30;58.22;;;9.90;71.60;;;;;;5012388;28;20050;-70
2021/03/26 20:58:45;;;;;;;94.22;59.28;;;9.90;72.30;;;;;;5015857;28;20045;-77
2021/03/26 21:01:17;;;;;;;87.15;55.22;;;9.90;73.00;;;;;;4998154;28;20549;-74
2021/03/26 21:04:04;;;;;;;94.75;57.22;;;9.90;72.20;;;;;;5014663;28;20053;-73
2021/03/26 21:06:34;;;;;;;89.30;54.53;;;9.80;73.00;;;;;;5075905;28;20057;-72
2021/03/26 21:09:03;;;;;;;89.95;57.70;;;9.80;72.50;;;;;;5089383;28;20020;-68
2021/03/26 21:11:56;;;;;;;90.68;56.55;;;9.80;72.80;;;;;;5074103;28;20025;-72
2021/03/26 21:14:37;;;;;;;93.20;57.88;;;9.80;72.90;;;;;;5072343;28;20032;-75
2021/03/26 21:17:23;;;;;;;88.00;51.58;;;9.80;76.80;;;;;;5073528;28;20039;-69
2021/03/26 21:20:05;;;;;;;84.03;50.13;;;9.70;73.50;;;;;;5076695;28;20441;-71
2021/03/26 21:22:39;;;;;;;91.88;54.40;;;9.70;75.60;;;;;;5078637;28;20024;-75
2021/03/26 21:25:17;;;;;;;100.60;58.17;;;9.70;76.50;;;;;;5077413;28;20028;-69
2021/03/26 21:27:46;;;;;;;82.72;51.13;;;9.60;74.80;;;;;;5077936;28;20029;-79
2021/03/26 21:30:40;;;;;;;88.93;55.70;;;9.60;75.00;;;;;;5078320;28;20027;-78
2021/03/26 21:33:08;;;;;;;158.27;89.95;;;9.50;75.80;;;;;;5077344;28;20119;-79
2021/03/26 21:36:04;;;;;;;124.07;74.03;;;9.40;76.80;;;;;;5076655;28;20028;-79
2021/03/26 21:38:39;;;;;;;140.85;84.30;;;9.20;77.60;;;;;;5079272;28;20028;-75
2021/03/26 21:41:31;;;;;;;134.93;81.40;;;9.20;78.10;;;;;;5080557;28;20029;-71
2021/03/26 21:44:25;;;;;;;93.43;54.83;;;9.20;79.60;;;;;;5081032;28;20064;-75
2021/03/26 21:47:10;;;;;;;82.10;52.00;;;9.20;78.80;;;;;;5083239;28;20036;-77
2021/03/26 21:49:57;;;;;;;102.80;63.70;;;9.20;79.10;;;;;;5081377;28;20486;-71
2021/03/26 21:52:46;;;;;;;94.78;59.67;;;9.10;80.80;;;;;;5080813;28;20471;-71
2021/03/26 21:55:38;;;;;;;102.18;64.05;;;9.10;80.20;;;;;;5083774;28;20029;-76
2021/03/26 21:58:07;;;;;;;102.72;66.32;;;9.10;82.00;;;;;;5081865;28;20107;-75
2021/03/26 22:00:47;;;;;;;103.93;65.80;;;9.10;82.80;;;;;;5082951;28;20008;-76
2021/03/26 22:03:25;;;;;;;102.25;65.95;;;9.00;82.50;;;;;;5082216;28;20033;-75
2021/03/26 22:06:17;;;;;;;105.68;66.82;;;8.90;82.60;;;;;;5082531;28;20017;-78
2021/03/26 22:09:04;;;;;;;108.85;68.60;;;8.90;83.70;;;;;;5082509;28;20028;-76
2021/03/26 22:11:40;;;;;;;109.90;69.57;;;8.80;84.40;;;;;;5082799;28;20029;-73
2021/03/26 22:14:18;;;;;;;120.38;76.32;;;8.90;84.50;;;;;;5081761;28;20351;-71
2021/03/26 22:17:35;;;;;;;119.43;75.97;;;8.70;85.60;;;;;;5081468;28;20063;-71
2021/03/26 22:20:14;;;;;;;119.97;78.90;;;8.70;86.80;;;;;;5077563;28;20019;-71
2021/03/26 22:22:43;;;;;;;123.40;80.95;;;8.70;85.30;;;;;;5084141;28;20013;-75
2021/03/26 22:25:08;;;;;;;122.07;77.20;;;8.60;84.70;;;;;;5083163;28;20042;-71
2021/03/26 22:28:09;;;;;;;120.30;76.95;;;8.60;86.20;;;;;;5082582;28;20046;-76
2021/03/26 22:30:41;;;;;;;123.45;77.20;;;8.60;87.60;;;;;;5083567;28;20046;-76
2021/03/26 22:33:37;;;;;;;119.65;76.90;;;8.60;87.80;;;;;;5083040;28;20351;-76
2021/03/26 22:36:19;;;;;;;116.57;75.90;;;8.50;86.20;;;;;;5080864;28;20082;-77
2021/03/26 22:38:58;;;;;;;121.60;77.68;;;8.40;87.70;;;;;;5083021;28;20027;-75
2021/03/26 22:41:32;;;;;;;127.90;80.40;;;8.40;87.30;;;;;;5077729;28;20028;-70
2021/03/26 22:44:24;;;;;;;133.52;84.85;;;8.30;87.80;;;;;;5079222;28;20545;-70
2021/03/26 22:47:12;;;;;;;130.80;82.53;;;8.30;87.70;;;;;;5082590;28;20056;-72
2021/03/26 22:50:05;;;;;;;133.68;83.18;;;8.30;88.50;;;;;;5030892;28;20033;-71
2021/03/26 22:52:48;;;;;;;118.43;74.70;;;8.30;88.10;;;;;;5081788;28;20040;-79
2021/03/26 22:55:21;;;;;;;104.60;64.47;;;8.30;88.50;;;;;;5080450;28;20028;-72
2021/03/26 22:57:47;;;;;;;98.45;64.18;;;8.30;87.80;;;;;;5079084;28;20040;-70
2021/03/26 23:00:34;;;;;;;212.38;116.95;;;8.30;87.70;;;;;;5078126;28;20082;-70
2021/03/26 23:03:06;;;;;;;107.75;66.68;;;8.30;87.40;;;;;;5121640;28;20077;-70
2021/03/26 23:05:37;;;;;;;118.45;71.80;;;8.20;88.40;;;;;;5121678;28;20066;-71
2021/03/26 23:08:20;;;;;;;110.13;68.75;;;8.20;88.50;;;;;;5122903;28;20028;-79
2021/03/26 23:11:17;;;;;;;105.72;67.82;;;8.00;88.10;;;;;;5121720;28;20023;-71